»·PEaware :: UAL1828 KBUR-KTEX

UAL1828 :: KBUR-KTEX

FLIGHT INFORMATION

Flight Status: Arrived
Operator:
United Airlines
More flights by this operator :: More flights under this callsign
Pilot: Kyle M. (9350)
Aircraft: AIRBUS A320
(A320)
More flights by this aircraft type
Origin: KBUR Bob Hope-Burbank
United States
Destination: KTEX Telluride Regl
United States
More flights between these airports :: More routes between these airports
Route: +VVERA2 DAG LAS DVC V68 ETL
File this flight plan on PilotEdge
Remarks: CptCanada - Youtube Livestreams!
Altitude:
(Current/Filed)
37,000ft
Speed:
(Current/Filed)
450kts
Departed: 29-Sep-18 12:53 PM
Arrived: 29-Sep-18 02:20 PM
Distance/Time
Traveled:
554nm/1:27
Distance/Time
To Go:
Arrived

Flight Plot

Page will automatically refresh every two minutes.

Flight plan parsing failed; only flown route is shown


Map Options




Map Legend


Flown Route
Filed Route
Departure Airport
Arrival Airport
Navaid (VOR, NDB)
Fix

Horizontal Profiles

Position Reports

Time Latitude Longitude Heading Altitude Ground
Speed
29-Sep-18 12:34 34.196139 -118.354973 125 785ft 0kts
29-Sep-18 12:35 34.196139 -118.354973 125 785ft 0kts
29-Sep-18 12:36 34.196139 -118.354973 125 785ft 0kts
29-Sep-18 12:37 34.196139 -118.354973 125 785ft 0kts
29-Sep-18 12:38 34.196139 -118.354973 125 785ft 0kts
29-Sep-18 12:39 34.196139 -118.354973 125 785ft 0kts
29-Sep-18 12:40 34.196139 -118.354973 125 785ft 0kts
29-Sep-18 12:41 34.196139 -118.354973 125 785ft 0kts
29-Sep-18 12:42 34.196139 -118.354973 125 785ft 0kts
29-Sep-18 12:43 34.196139 -118.354973 125 785ft 0kts
29-Sep-18 12:44 34.196139 -118.354973 125 785ft 0kts
29-Sep-18 12:45 34.196139 -118.354973 125 785ft 0kts
29-Sep-18 12:46 34.196139 -118.354973 125 785ft 0kts
29-Sep-18 12:47 34.196267 -118.355188 107 785ft 1kts
29-Sep-18 12:48 34.196059 -118.355371 346 785ft 0kts
29-Sep-18 12:49 34.196060 -118.355371 346 785ft 0kts
29-Sep-18 12:50 34.196060 -118.355371 346 785ft 0kts
29-Sep-18 12:51 34.197289 -118.355446 22 785ft 10kts
29-Sep-18 12:52 34.201607 -118.356143 346 785ft 18kts
29-Sep-18 12:53 34.206763 -118.357602 347 785ft 20kts
29-Sep-18 12:54 34.209810 -118.358837 272 785ft 6kts
29-Sep-18 12:55 34.194813 -118.355603 166 1027ft 160kts
29-Sep-18 12:56 34.155741 -118.381024 237 4104ft 188kts
29-Sep-18 12:57 34.184848 -118.419153 359 6550ft 222kts
29-Sep-18 12:58 34.255685 -118.428016 353 8967ft 292kts
29-Sep-18 12:59 34.340634 -118.437947 10 11707ft 335kts
29-Sep-18 13:00 34.428072 -118.389186 54 14095ft 367kts
29-Sep-18 13:01 34.482379 -118.279704 65 16469ft 391kts
29-Sep-18 13:02 34.518572 -118.154732 74 19135ft 399kts
29-Sep-18 13:03 34.544334 -118.022282 74 21194ft 414kts
29-Sep-18 13:04 34.570881 -117.884900 74 23118ft 425kts
29-Sep-18 13:05 34.597947 -117.743850 74 24861ft 436kts
29-Sep-18 13:06 34.625644 -117.599635 74 26488ft 445kts
29-Sep-18 13:07 34.653593 -117.453098 75 28007ft 452kts
29-Sep-18 13:08 34.681867 -117.303800 75 29372ft 458kts
29-Sep-18 13:09 34.710449 -117.151772 76 30543ft 466kts
29-Sep-18 13:10 34.744952 -117.000410 60 31764ft 465kts
29-Sep-18 13:11 34.813091 -116.867455 55 32915ft 465kts
29-Sep-18 13:12 34.881694 -116.734911 55 34052ft 465kts
29-Sep-18 13:13 34.945115 -116.598569 70 35145ft 467kts
29-Sep-18 13:14 34.944456 -116.441664 98 36104ft 471kts
29-Sep-18 13:15 34.923717 -116.284970 98 36917ft 472kts
29-Sep-18 13:16 34.902636 -116.127438 98 36954ft 471kts
29-Sep-18 13:17 34.880953 -115.969943 102 36955ft 472kts
29-Sep-18 13:18 34.859457 -115.812616 96 36956ft 472kts
29-Sep-18 13:19 34.841979 -115.655362 85 36891ft 471kts
29-Sep-18 13:20 34.903911 -115.522676 32 36926ft 458kts
29-Sep-18 13:21 35.020933 -115.473893 9 36908ft 446kts
29-Sep-18 13:22 35.140583 -115.439029 10 36848ft 444kts
29-Sep-18 13:23 35.259766 -115.403976 10 36898ft 443kts
29-Sep-18 13:24 35.379268 -115.368715 10 36850ft 444kts
29-Sep-18 13:25 35.498882 -115.333317 10 36920ft 445kts
29-Sep-18 13:26 35.618998 -115.297663 10 36931ft 446kts
29-Sep-18 13:27 35.739158 -115.261885 10 36936ft 447kts
29-Sep-18 13:28 35.859580 -115.225919 10 36939ft 447kts
29-Sep-18 13:29 35.979692 -115.189932 10 36939ft 448kts
29-Sep-18 13:30 36.085749 -115.109868 49 36921ft 465kts
29-Sep-18 13:31 36.137974 -114.971029 67 36928ft 469kts
29-Sep-18 13:32 36.184307 -114.820721 67 36899ft 468kts
29-Sep-18 13:33 36.230231 -114.670686 67 36882ft 467kts
29-Sep-18 13:34 36.275929 -114.520539 67 36884ft 467kts
29-Sep-18 13:35 36.321364 -114.370463 67 36892ft 467kts
29-Sep-18 13:36 36.366685 -114.219960 68 36896ft 467kts
29-Sep-18 13:37 36.411887 -114.069048 68 36982ft 468kts
29-Sep-18 13:38 36.456865 -113.918067 68 36985ft 468kts
29-Sep-18 13:39 36.501785 -113.766472 68 36987ft 468kts
29-Sep-18 13:40 36.546555 -113.614552 68 36987ft 468kts
29-Sep-18 13:41 36.591103 -113.462565 68 36986ft 468kts
29-Sep-18 13:42 36.635237 -113.311158 69 37108ft 468kts
29-Sep-18 13:43 36.679386 -113.158856 69 37144ft 469kts
29-Sep-18 13:44 36.723297 -113.006542 69 37145ft 469kts
29-Sep-18 13:45 36.767220 -112.853327 69 37147ft 469kts
29-Sep-18 13:46 36.810825 -112.700367 69 37148ft 469kts
29-Sep-18 13:47 36.854282 -112.547067 69 37130ft 469kts
29-Sep-18 13:48 36.897442 -112.393939 69 37117ft 469kts
29-Sep-18 13:49 36.939938 -112.242305 70 37111ft 469kts
29-Sep-18 13:50 36.982819 -112.088428 70 37054ft 468kts
29-Sep-18 13:51 37.025404 -111.934749 70 37060ft 469kts
29-Sep-18 13:52 37.067618 -111.781514 72 37099ft 465kts
29-Sep-18 13:53 37.108986 -111.630491 72 37075ft 462kts
29-Sep-18 13:54 37.150277 -111.478869 72 37038ft 460kts
29-Sep-18 13:55 37.190746 -111.329405 73 37031ft 459kts
29-Sep-18 13:56 37.231535 -111.177880 73 37043ft 459kts
29-Sep-18 13:57 37.272088 -111.026361 73 37057ft 460kts
29-Sep-18 13:58 37.312573 -110.874199 73 37062ft 461kts
29-Sep-18 13:59 37.353163 -110.720716 73 37032ft 467kts
29-Sep-18 14:00 37.393978 -110.565492 73 37083ft 470kts
29-Sep-18 14:01 37.434737 -110.409546 73 37276ft 471kts
29-Sep-18 14:02 37.474727 -110.255597 74 37260ft 471kts
29-Sep-18 14:03 37.515086 -110.099276 74 37239ft 470kts
29-Sep-18 14:04 37.555174 -109.943028 75 37222ft 469kts
29-Sep-18 14:05 37.595101 -109.786431 75 36933ft 470kts
29-Sep-18 14:06 37.634491 -109.631082 74 33111ft 460kts
29-Sep-18 14:07 37.673575 -109.475739 74 30061ft 469kts
29-Sep-18 14:08 37.711496 -109.324305 75 27763ft 459kts
29-Sep-18 14:09 37.745989 -109.185711 75 25683ft 447kts
29-Sep-18 14:10 37.782407 -109.038441 75 23417ft 434kts
29-Sep-18 14:11 37.820915 -108.896313 68 21107ft 425kts
29-Sep-18 14:12 37.867549 -108.761974 68 18880ft 412kts
29-Sep-18 14:13 37.912694 -108.631199 68 16637ft 399kts
29-Sep-18 14:14 37.956780 -108.502889 67 15797ft 399kts
29-Sep-18 14:15 38.001289 -108.372821 66 13692ft 402kts
29-Sep-18 14:16 38.033984 -108.257502 99 12132ft 321kts
29-Sep-18 14:17 38.000878 -108.170258 110 11876ft 248kts
29-Sep-18 14:18 37.987401 -108.098896 103 12006ft 245kts
29-Sep-18 14:19 37.976083 -108.014443 104 10694ft 181kts
29-Sep-18 14:20 37.965976 -107.966290 104 9780ft 166kts
29-Sep-18 14:21 37.954174 -107.910496 105 9087ft 134kts
29-Sep-18 14:22 37.952534 -107.897259 286 9087ft 11kts
29-Sep-18 14:23 37.953490 -107.901509 292 9087ft 10kts
29-Sep-18 14:24 37.954006 -107.901914 13 9087ft 0kts

Navigation Log

Ident Type
Flight plan parsing failed, navigation log unavailable